Time;durP1;ratioP1;P1;durP2;ratioP2;P2;SDS_P1;SDS_P2;PMS_P1;PMS_P2;Temp;Humidity;BMP_temperature;BMP_pressure;BME280_temperature;BME280_humidity;BME280_pressure;Samples;Min_cycle;Max_cycle;Signal;HPM_P1;HPM_P2
2021/10/17 00:00:56;;;;;;;0.70;0.70;;;;;;;4.99;100.00;101122.59;5076408;28;20484;-73
2021/10/17 00:03:21;;;;;;;1.07;0.83;;;;;;;4.82;100.00;101121.91;5094935;28;20202;-74
2021/10/17 00:05:46;;;;;;;3.17;0.90;;;;;;;4.81;100.00;101114.84;5076023;28;20733;-74
2021/10/17 00:08:12;;;;;;;2.13;1.33;;;;;;;4.86;100.00;101116.78;5076760;28;20673;-73
2021/10/17 00:10:37;;;;;;;1.13;1.03;;;;;;;4.92;100.00;101127.44;5094461;28;20170;-74
2021/10/17 00:13:06;;;;;;;3.83;1.37;;;;;;;4.90;100.00;101136.84;5094387;28;20178;-73
2021/10/17 00:15:34;;;;;;;0.90;0.90;;;;;;;4.99;100.00;101129.91;5094846;28;20226;-73
2021/10/17 00:18:01;;;;;;;4.37;0.83;;;;;;;5.08;100.00;101133.78;5094521;28;20174;-73
2021/10/17 00:20:27;;;;;;;3.33;1.53;;;;;;;5.06;100.00;101131.34;5076189;28;20174;-74
2021/10/17 00:22:53;;;;;;;1.43;1.20;;;;;;;5.23;100.00;101133.09;5076099;28;20549;-73
2021/10/17 00:25:20;;;;;;;1.77;1.27;;;;;;;5.35;100.00;101131.00;5094128;28;20223;-73
2021/10/17 00:27:46;;;;;;;29.27;1.73;;;;;;;5.46;100.00;101129.19;5094208;28;20178;-73
2021/10/17 00:30:13;;;;;;;4.10;1.30;;;;;;;5.67;100.00;101142.63;5093937;28;20211;-74
2021/10/17 00:32:39;;;;;;;7.40;0.80;;;;;;;5.93;100.00;101130.06;5075802;28;20632;-73
2021/10/17 00:35:06;;;;;;;0.97;0.33;;;;;;;6.10;100.00;101143.44;5094003;28;20558;-73
2021/10/17 00:37:33;;;;;;;3.43;1.13;;;;;;;6.34;100.00;101132.13;5094000;28;20647;-73
2021/10/17 00:39:59;;;;;;;1.57;0.70;;;;;;;6.42;100.00;101132.44;5075860;28;20180;-74
2021/10/17 00:42:24;;;;;;;2.97;1.07;;;;;;;6.46;100.00;101130.81;5093801;28;20394;-74
2021/10/17 00:45:02;;;;;;;1.40;1.00;;;;;;;6.54;100.00;101129.50;5093741;28;20184;-73
2021/10/17 00:47:28;;;;;;;0.77;0.60;;;;;;;6.65;100.00;101133.03;5093725;28;20182;-74
2021/10/17 00:49:53;;;;;;;1.83;1.00;;;;;;;6.73;100.00;101136.03;5074812;28;20261;-74
2021/10/17 00:52:20;;;;;;;0.97;0.60;;;;;;;6.78;100.00;101127.06;5093690;28;20633;-73
2021/10/17 00:54:46;;;;;;;2.67;1.17;;;;;;;6.81;99.81;101124.66;5093355;28;20170;-74
2021/10/17 00:57:13;;;;;;;0.87;0.73;;;;;;;6.84;99.23;101120.59;5075367;28;20205;-73
2021/10/17 00:59:38;;;;;;;1.10;1.00;;;;;;;6.83;99.05;101130.63;5093676;28;20205;-74
2021/10/17 01:02:04;;;;;;;2.80;1.20;;;;;;;6.84;98.88;101115.97;5093555;28;20236;-74
2021/10/17 01:04:36;;;;;;;1.43;0.80;;;;;;;6.82;99.57;101107.28;5093130;28;20559;-74
2021/10/17 01:07:03;;;;;;;2.70;0.80;;;;;;;6.78;99.11;101108.88;5093170;28;20273;-74
2021/10/17 01:09:28;;;;;;;2.10;1.37;;;;;;;6.81;98.85;101115.69;5075156;28;20178;-73
2021/10/17 01:11:53;;;;;;;1.13;0.83;;;;;;;6.85;98.30;101112.16;5093671;28;20181;-73
2021/10/17 01:14:20;;;;;;;3.87;0.93;;;;;;;6.85;98.83;101106.75;5074908;28;20623;-74
2021/10/17 01:16:46;;;;;;;3.20;0.80;;;;;;;6.83;98.94;101105.38;5074908;28;20509;-74
2021/10/17 01:19:12;;;;;;;2.20;1.67;;;;;;;6.82;99.39;101110.00;5093098;28;20231;-74
2021/10/17 01:21:39;;;;;;;1.73;1.30;;;;;;;6.81;99.66;101105.66;5075009;28;20544;-74
2021/10/17 01:24:05;;;;;;;3.10;1.63;;;;;;;6.81;99.90;101113.81;5092860;28;20259;-74
2021/10/17 01:26:31;;;;;;;3.73;0.90;;;;;;;6.83;99.77;101103.47;5092981;28;20216;-74
2021/10/17 01:28:56;;;;;;;1.73;1.37;;;;;;;6.84;99.43;101110.53;5093002;28;20209;-74
2021/10/17 01:31:33;;;;;;;2.33;1.30;;;;;;;6.84;100.00;101110.53;5074707;28;20170;-73
2021/10/17 01:33:59;;;;;;;3.43;1.23;;;;;;;6.88;100.00;101115.44;5092529;28;20192;-73
2021/10/17 01:36:24;;;;;;;2.37;0.97;;;;;;;6.85;100.00;101101.31;5092669;28;20696;-74
2021/10/17 01:38:50;;;;;;;3.23;2.10;;;;;;;6.88;100.00;101096.41;5092544;28;20181;-74
2021/10/17 01:41:15;;;;;;;1.90;0.80;;;;;;;6.89;100.00;101093.44;5075766;28;20205;-73
2021/10/17 01:43:40;;;;;;;1.50;0.83;;;;;;;6.93;100.00;101099.94;5095638;28;20297;-74
2021/10/17 01:46:06;;;;;;;4.13;1.17;;;;;;;6.95;100.00;101103.22;5076084;28;20537;-74
2021/10/17 01:48:31;;;;;;;1.97;1.43;;;;;;;6.98;100.00;101099.97;5093233;28;20555;-73
2021/10/17 01:50:57;;;;;;;1.60;1.17;;;;;;;7.03;100.00;101101.84;5092816;28;20501;-73
2021/10/17 01:53:22;;;;;;;4.30;1.13;;;;;;;7.05;100.00;101108.63;5093176;28;20170;-74
2021/10/17 01:55:47;;;;;;;2.23;1.17;;;;;;;7.10;99.46;101103.22;5074274;28;20189;-74
2021/10/17 01:58:13;;;;;;;3.63;1.50;;;;;;;7.13;99.49;101091.00;5074415;28;20182;-73
2021/10/17 02:00:38;;;;;;;3.90;1.50;;;;;;;7.14;99.18;101092.63;5091753;28;20174;-74
2021/10/17 02:03:03;;;;;;;1.17;1.07;;;;;;;7.14;99.77;101084.47;5092291;28;20229;-73
2021/10/17 02:05:29;;;;;;;1.20;1.10;;;;;;;7.15;99.19;101084.19;5092339;28;20178;-73
2021/10/17 02:07:54;;;;;;;2.67;1.43;;;;;;;7.16;99.90;101074.94;5074177;28;20184;-74
2021/10/17 02:10:19;;;;;;;1.27;1.10;;;;;;;7.19;99.01;101084.44;5073819;28;20695;-73
2021/10/17 02:12:45;;;;;;;1.87;1.73;;;;;;;7.22;99.16;101180.91;5092259;28;20177;-73
2021/10/17 02:15:10;;;;;;;2.43;1.20;;;;;;;7.25;98.64;100849.66;5092109;28;20178;-73
2021/10/17 02:17:35;;;;;;;4.93;1.33;;;;;;;7.26;99.01;100837.69;5074051;28;20181;-73
2021/10/17 02:20:01;;;;;;;2.67;1.07;;;;;;;7.30;99.24;100950.19;5073889;28;20182;-73
2021/10/17 02:22:26;;;;;;;4.57;1.27;;;;;;;7.33;99.34;100916.19;5091994;28;20197;-73
2021/10/17 02:24:52;;;;;;;4.73;1.00;;;;;;;7.34;98.62;100923.25;5073704;28;20510;-73
2021/10/17 02:27:17;;;;;;;6.97;1.10;;;;;;;7.37;99.12;100918.06;5091964;28;20177;-73
2021/10/17 02:29:42;;;;;;;2.00;1.27;;;;;;;7.41;97.92;100910.19;5073756;28;20178;-73
2021/10/17 02:32:08;;;;;;;3.37;1.53;;;;;;;7.48;97.73;100907.97;5073703;28;20174;-73
2021/10/17 02:34:33;;;;;;;1.53;1.00;;;;;;;7.52;96.86;100898.16;5073237;28;20177;-73
2021/10/17 02:36:58;;;;;;;2.37;1.73;;;;;;;7.57;96.26;100905.50;5091761;28;20212;-73
2021/10/17 02:39:24;;;;;;;1.63;1.43;;;;;;;7.59;95.58;100901.41;5091858;28;20189;-73
2021/10/17 02:41:49;;;;;;;2.77;1.10;;;;;;;7.60;95.86;100900.31;5091657;28;20184;-73
2021/10/17 02:44:15;;;;;;;0.43;0.27;;;;;;;7.65;94.95;100907.63;5091840;28;20197;-73
2021/10/17 02:46:40;;;;;;;3.53;1.40;;;;;;;7.67;94.41;100898.09;5073653;28;20190;-73
2021/10/17 02:49:05;;;;;;;0.77;0.73;;;;;;;7.68;94.46;100891.56;5091832;28;20672;-74
2021/10/17 02:51:31;;;;;;;1.43;1.17;;;;;;;7.67;95.13;100892.66;5091575;28;20174;-73
2021/10/17 02:53:56;;;;;;;2.53;2.17;;;;;;;7.67;95.37;100884.50;5073342;28;20448;-73
2021/10/17 02:56:22;;;;;;;4.37;1.80;;;;;;;7.67;95.31;100889.94;5073201;28;20174;-73
2021/10/17 02:58:47;;;;;;;3.43;0.90;;;;;;;7.70;94.32;100892.09;5091308;28;20170;-73
2021/10/17 03:01:13;;;;;;;2.00;1.47;;;;;;;7.72;94.46;100883.66;5091385;28;20260;-73
2021/10/17 03:03:38;;;;;;;1.43;1.33;;;;;;;7.75;95.27;100892.06;5091399;28;20201;-73
2021/10/17 03:06:03;;;;;;;2.87;1.90;;;;;;;7.76;94.65;100885.53;5073091;28;20185;-74
2021/10/17 03:08:29;;;;;;;2.67;1.60;;;;;;;7.76;93.63;100874.66;5073678;28;20170;-73
2021/10/17 03:10:54;;;;;;;0.87;0.87;;;;;;;7.79;93.56;100900.47;5091397;28;20253;-73
2021/10/17 03:13:19;;;;;;;1.10;1.00;;;;;;;7.81;93.13;100908.34;5090891;28;20166;-73
2021/10/17 03:15:45;;;;;;;1.73;0.80;;;;;;;7.82;93.10;100924.41;5091200;28;20220;-73
2021/10/17 03:18:10;;;;;;;1.47;0.97;;;;;;;7.84;92.68;100913.25;5091620;28;20174;-73
2021/10/17 03:20:35;;;;;;;2.10;1.90;;;;;;;7.85;93.04;100928.47;5073244;28;20170;-73
2021/10/17 03:23:01;;;;;;;5.33;1.90;;;;;;;7.85;92.71;100915.69;5091190;28;20534;-73
2021/10/17 03:25:26;;;;;;;2.87;1.80;;;;;;;7.86;92.36;100927.38;5072726;28;20228;-73
2021/10/17 03:27:51;;;;;;;2.63;2.43;;;;;;;7.86;92.53;100922.75;5091016;28;20260;-73
2021/10/17 03:30:17;;;;;;;2.70;1.83;;;;;;;7.86;92.71;100921.94;5091135;28;20181;-74
2021/10/17 03:32:42;;;;;;;2.23;1.90;;;;;;;7.87;93.20;100920.84;5073073;28;20178;-73
2021/10/17 03:35:08;;;;;;;4.40;1.60;;;;;;;7.87;93.63;100913.47;5091077;28;20239;-73
2021/10/17 03:37:34;;;;;;;2.50;1.70;;;;;;;7.87;92.81;100916.19;5091082;28;20536;-73
2021/10/17 03:39:59;;;;;;;1.37;1.00;;;;;;;7.85;93.92;100912.94;5091223;28;20178;-73
2021/10/17 03:42:25;;;;;;;3.67;1.53;;;;;;;7.84;93.32;100918.69;5090983;28;20223;-73
2021/10/17 03:44:51;;;;;;;1.37;1.27;;;;;;;7.83;92.68;100920.59;5072943;28;20214;-73
2021/10/17 03:47:16;;;;;;;6.60;2.10;;;;;;;7.83;92.51;100917.06;5090923;28;20196;-74
2021/10/17 03:49:42;;;;;;;5.33;1.77;;;;;;;7.86;92.42;100927.38;5090868;28;20256;-73
2021/10/17 03:52:07;;;;;;;4.93;2.33;;;;;;;7.89;92.38;100930.34;5072906;28;20532;-73
2021/10/17 03:54:32;;;;;;;2.27;2.03;;;;;;;7.91;91.73;100922.69;5091181;28;20573;-73
2021/10/17 03:56:58;;;;;;;4.93;2.00;;;;;;;7.96;92.08;100921.88;5091269;28;20529;-74
2021/10/17 03:59:23;;;;;;;1.80;1.60;;;;;;;7.94;91.64;100924.03;5090987;28;20579;-74
2021/10/17 04:01:48;;;;;;;4.90;2.53;;;;;;;7.96;91.56;100938.19;5091040;28;20171;-73
2021/10/17 04:04:14;;;;;;;8.93;2.03;;;;;;;7.94;92.61;100930.28;5090205;28;20201;-74
2021/10/17 04:06:39;;;;;;;2.47;1.73;;;;;;;7.92;91.98;100928.94;5090403;28;20655;-73
2021/10/17 04:09:05;;;;;;;3.07;1.90;;;;;;;7.92;92.58;100927.03;5090413;28;20191;-73
2021/10/17 04:11:30;;;;;;;3.63;2.27;;;;;;;7.89;93.90;100924.09;5072421;28;20714;-73
2021/10/17 04:13:56;;;;;;;3.10;1.50;;;;;;;7.84;93.92;100932.28;5071987;28;20222;-73
2021/10/17 04:16:21;;;;;;;8.23;2.53;;;;;;;7.80;95.26;100933.91;5090404;28;20177;-73
2021/10/17 04:18:46;;;;;;;3.30;1.70;;;;;;;7.80;94.63;100931.19;5090405;28;20174;-74
2021/10/17 04:21:12;;;;;;;6.80;1.60;;;;;;;7.83;93.73;100945.06;5090272;28;20205;-74
2021/10/17 04:23:37;;;;;;;2.10;1.57;;;;;;;7.90;93.32;100944.75;5071866;28;20212;-74
2021/10/17 04:26:03;;;;;;;3.10;1.60;;;;;;;7.92;93.28;100950.72;5075521;28;20178;-74
2021/10/17 04:28:28;;;;;;;3.37;1.87;;;;;;;7.95;94.04;100944.72;5094036;28;20169;-74
2021/10/17 04:30:54;;;;;;;4.30;1.80;;;;;;;8.01;94.40;100946.31;5093812;28;20242;-73
2021/10/17 04:33:19;;;;;;;3.00;2.40;;;;;;;8.04;94.66;100943.84;5075630;28;20177;-74
2021/10/17 04:35:45;;;;;;;3.77;2.40;;;;;;;7.97;95.45;100935.19;5093525;28;20173;-73
2021/10/17 04:38:10;;;;;;;7.80;2.03;;;;;;;7.94;96.17;100934.91;5093865;28;20178;-74
2021/10/17 04:40:36;;;;;;;5.20;2.40;;;;;;;7.96;97.21;100947.16;5093880;28;20201;-74
2021/10/17 04:43:03;;;;;;;8.17;2.37;;;;;;;7.98;97.10;100946.88;5093505;28;20194;-74
2021/10/17 04:45:29;;;;;;;4.30;1.40;;;;;;;7.98;99.01;100949.59;5075226;28;20181;-74
2021/10/17 04:47:54;;;;;;;3.10;1.70;;;;;;;7.75;100.00;100930.13;5093470;28;20162;-73
2021/10/17 04:50:19;;;;;;;2.10;1.60;;;;;;;7.57;100.00;100938.94;5093458;28;20548;-73
2021/10/17 04:52:47;;;;;;;2.63;1.70;;;;;;;7.45;100.00;100933.81;5093459;28;20648;-74
2021/10/17 04:55:12;;;;;;;6.90;2.00;;;;;;;7.46;99.37;100946.31;5093056;28;20173;-73
2021/10/17 04:57:38;;;;;;;4.23;2.43;;;;;;;7.55;98.67;100960.16;5093441;28;20178;-74
2021/10/17 05:00:04;;;;;;;3.77;1.57;;;;;;;7.61;97.57;100972.63;5093215;28;20202;-73
2021/10/17 05:02:29;;;;;;;5.77;1.90;;;;;;;7.65;96.51;100968.25;5093176;28;20178;-74
2021/10/17 05:04:55;;;;;;;7.90;2.37;;;;;;;7.64;96.10;100963.91;5093269;28;20613;-73
2021/10/17 05:07:20;;;;;;;3.10;2.03;;;;;;;7.67;95.53;100968.00;5074855;28;20276;-74
2021/10/17 05:09:46;;;;;;;2.60;1.47;;;;;;;7.68;94.68;100962.28;5075053;28;20201;-73
2021/10/17 05:12:11;;;;;;;1.90;1.33;;;;;;;7.69;93.81;100969.34;5093094;28;20221;-73
2021/10/17 05:14:36;;;;;;;0.67;0.67;;;;;;;7.75;92.42;100972.84;5074838;28;20246;-74
2021/10/17 05:17:02;;;;;;;1.57;1.10;;;;;;;7.80;92.13;100969.28;5093315;28;20185;-73
2021/10/17 05:19:27;;;;;;;3.43;1.40;;;;;;;7.81;92.20;100960.88;5092967;28;20197;-73
2021/10/17 05:21:52;;;;;;;1.47;1.07;;;;;;;7.85;91.62;100972.00;5074797;28;20177;-74
2021/10/17 05:24:18;;;;;;;3.67;1.53;;;;;;;7.85;91.93;100972.00;5092774;28;20201;-73
2021/10/17 05:26:43;;;;;;;4.73;1.83;;;;;;;7.83;91.60;100977.72;5074654;28;20407;-73
2021/10/17 05:29:08;;;;;;;1.60;1.17;;;;;;;7.85;91.05;100983.69;5092821;28;20177;-73
2021/10/17 05:31:34;;;;;;;4.93;1.80;;;;;;;7.89;90.77;100979.31;5074445;28;20178;-73
2021/10/17 05:34:00;;;;;;;3.70;2.23;;;;;;;7.90;90.48;100982.84;5074157;28;20182;-73
2021/10/17 05:36:25;;;;;;;2.03;1.93;;;;;;;7.95;91.61;100986.31;5092595;28;20203;-73
2021/10/17 05:38:51;;;;;;;2.67;1.63;;;;;;;7.95;90.29;100988.22;5092650;28;20652;-73
2021/10/17 05:41:16;;;;;;;2.97;1.80;;;;;;;8.00;89.74;101001.84;5092583;28;20170;-74
2021/10/17 05:43:42;;;;;;;2.47;1.50;;;;;;;8.03;89.88;101004.81;5092555;28;20201;-74
2021/10/17 05:46:07;;;;;;;2.67;2.03;;;;;;;8.07;89.89;101011.28;5074230;28;20189;-74
2021/10/17 05:48:33;;;;;;;3.90;2.40;;;;;;;8.12;90.42;101015.09;5074215;28;20209;-74
2021/10/17 05:50:58;;;;;;;4.50;3.57;;;;;;;8.11;90.84;101013.47;5092368;28;20177;-74
2021/10/17 05:53:23;;;;;;;5.33;2.57;;;;;;;8.08;91.83;101014.84;5092307;28;20617;-74
2021/10/17 05:55:49;;;;;;;4.67;2.20;;;;;;;8.01;92.54;101022.50;5073624;28;20178;-74
2021/10/17 05:58:14;;;;;;;3.20;2.47;;;;;;;7.98;93.30;101023.88;5092168;28;20746;-74
2021/10/17 06:00:39;;;;;;;4.47;2.80;;;;;;;7.95;93.94;101015.44;5092082;28;20189;-74
2021/10/17 06:03:05;;;;;;;5.97;2.17;;;;;;;7.92;95.57;101021.44;5092049;28;20197;-73
2021/10/17 06:05:30;;;;;;;5.67;2.47;;;;;;;7.92;96.36;101033.16;5073464;28;20181;-74
2021/10/17 06:07:56;;;;;;;4.20;2.37;;;;;;;7.89;96.02;101032.91;5073910;28;20166;-73
2021/10/17 06:10:21;;;;;;;9.87;1.83;;;;;;;7.83;96.44;101037.56;5091937;28;20529;-73
2021/10/17 06:12:46;;;;;;;3.10;2.33;;;;;;;7.78;97.65;101032.13;5073734;28;20268;-73
2021/10/17 06:15:12;;;;;;;2.10;1.90;;;;;;;7.72;98.66;101020.44;5073549;28;20589;-73
2021/10/17 06:17:38;;;;;;;4.43;1.93;;;;;;;7.68;98.70;101026.75;5091963;28;20182;-72
2021/10/17 06:20:04;;;;;;;4.50;1.33;;;;;;;7.65;98.58;101028.09;5073634;28;20174;-72
2021/10/17 06:22:30;;;;;;;3.90;2.23;;;;;;;7.68;98.89;101032.19;5073456;28;20645;-73
2021/10/17 06:24:55;;;;;;;2.60;1.60;;;;;;;7.66;99.47;101028.88;5091574;28;20250;-72
2021/10/17 06:27:21;;;;;;;2.47;1.50;;;;;;;7.64;98.90;101037.34;5091757;28;20174;-72
2021/10/17 06:29:46;;;;;;;2.33;1.83;;;;;;;7.67;98.75;101044.97;5073529;28;20519;-72
2021/10/17 06:32:12;;;;;;;4.10;1.97;;;;;;;7.69;98.90;101040.06;5073446;28;20647;-73
2021/10/17 06:34:37;;;;;;;2.30;1.70;;;;;;;7.71;96.92;101053.38;5073167;28;20256;-73
2021/10/17 06:37:02;;;;;;;2.97;2.00;;;;;;;7.71;96.78;101053.38;5091531;28;20640;-72
2021/10/17 06:39:28;;;;;;;2.87;2.30;;;;;;;7.74;96.71;101053.63;5091504;28;20185;-72
2021/10/17 06:41:53;;;;;;;4.23;1.93;;;;;;;7.78;95.71;101053.88;5073341;28;20694;-72
2021/10/17 06:44:19;;;;;;;4.33;2.20;;;;;;;7.82;94.80;101054.97;5072989;28;20288;-76
2021/10/17 06:46:47;;;;;;;6.70;2.07;;;;;;;7.86;94.46;101053.31;5090862;28;20514;-72
2021/10/17 06:49:12;;;;;;;1.73;1.50;;;;;;;7.90;95.03;101062.53;5091536;28;20181;-72
2021/10/17 06:51:37;;;;;;;5.43;1.90;;;;;;;7.94;93.42;101054.63;5091310;28;20174;-73
2021/10/17 06:54:03;;;;;;;4.83;2.17;;;;;;;7.96;92.22;101063.34;5072898;28;20261;-72
2021/10/17 06:56:28;;;;;;;3.17;1.47;;;;;;;7.97;91.90;101068.50;5072757;28;20273;-73
2021/10/17 06:58:54;;;;;;;2.37;1.60;;;;;;;7.99;91.63;101066.31;5072976;28;20188;-72
2021/10/17 07:01:19;;;;;;;2.50;1.63;;;;;;;8.03;92.58;101069.28;5072871;28;20178;-73
2021/10/17 07:03:44;;;;;;;1.27;1.17;;;;;;;8.04;91.07;101065.47;5072732;28;20247;-73
2021/10/17 07:06:10;;;;;;;2.77;1.73;;;;;;;8.09;90.78;101073.59;5072789;28;20210;-73
2021/10/17 07:08:36;;;;;;;2.33;2.10;;;;;;;8.14;89.62;101070.88;5072997;28;20169;-73
2021/10/17 07:11:02;;;;;;;2.93;1.63;;;;;;;8.22;89.66;101078.44;5072927;28;20755;-73
2021/10/17 07:13:28;;;;;;;7.17;2.57;;;;;;;8.21;89.15;101073.28;5073138;28;20268;-74
2021/10/17 07:15:53;;;;;;;5.57;2.27;;;;;;;8.15;91.19;101077.94;5090803;28;20204;-73
2021/10/17 07:18:18;;;;;;;3.20;2.67;;;;;;;8.16;90.26;101086.94;5090979;28;20174;-72
2021/10/17 07:20:44;;;;;;;3.43;2.00;;;;;;;8.17;90.83;101088.56;5090830;28;20178;-72
2021/10/17 07:23:09;;;;;;;4.90;2.37;;;;;;;8.19;89.99;101095.34;5090849;28;20233;-73
2021/10/17 07:25:35;;;;;;;2.43;1.80;;;;;;;8.22;90.23;101094.78;5090685;28;20173;-73
2021/10/17 07:28:01;;;;;;;3.93;2.87;;;;;;;8.43;91.53;101098.25;5072818;28;20177;-73
2021/10/17 07:30:26;;;;;;;2.90;1.83;;;;;;;8.62;91.33;101092.97;5091205;28;20205;-72
2021/10/17 07:32:51;;;;;;;8.47;1.83;;;;;;;8.65;90.93;101078.78;5090858;28;20266;-73
2021/10/17 07:35:17;;;;;;;4.90;1.97;;;;;;;8.60;91.36;101084.25;5072520;28;20185;-73
2021/10/17 07:37:42;;;;;;;2.83;1.77;;;;;;;8.67;91.39;101092.91;5090921;28;20170;-73
2021/10/17 07:40:09;;;;;;;2.47;1.70;;;;;;;8.82;88.86;101090.09;5090850;28;20187;-73
2021/10/17 07:42:35;;;;;;;3.13;1.60;;;;;;;8.99;85.75;101099.81;5090605;28;20182;-73
2021/10/17 07:45:00;;;;;;;3.47;2.30;;;;;;;9.07;85.94;101100.00;5090650;28;20170;-73
2021/10/17 07:47:26;;;;;;;4.00;2.73;;;;;;;9.13;87.01;101100.78;5090756;28;20377;-73
2021/10/17 07:49:52;;;;;;;3.17;1.87;;;;;;;9.13;85.33;101112.50;5090755;28;20205;-72
2021/10/17 07:52:17;;;;;;;5.77;2.17;;;;;;;9.13;84.26;101108.97;5072439;28;20209;-72
2021/10/17 07:54:43;;;;;;;5.23;2.93;;;;;;;9.16;85.73;101105.66;5072035;28;20178;-72
2021/10/17 07:57:09;;;;;;;5.70;3.60;;;;;;;9.09;86.07;101107.88;5072720;28;20264;-72
2021/10/17 07:59:35;;;;;;;3.60;2.97;;;;;;;9.02;88.61;101112.84;5075321;28;20265;-73
2021/10/17 08:02:00;;;;;;;2.97;2.17;;;;;;;9.14;89.42;101113.31;5073448;28;20290;-73
2021/10/17 08:04:26;;;;;;;3.83;2.03;;;;;;;9.24;88.76;101115.94;5094101;28;20625;-72
2021/10/17 08:06:51;;;;;;;4.47;1.97;;;;;;;9.24;87.42;101114.00;5076072;28;20231;-73
2021/10/17 08:09:17;;;;;;;5.30;3.73;;;;;;;9.27;87.17;101106.38;5075996;28;20262;-73
2021/10/17 08:11:42;;;;;;;5.77;2.30;;;;;;;9.30;87.59;101114.00;5094272;28;20499;-73
2021/10/17 08:14:07;;;;;;;5.70;1.83;;;;;;;9.32;86.14;101114.50;5075785;28;20170;-73
2021/10/17 08:16:33;;;;;;;5.40;1.60;;;;;;;9.30;84.43;101125.72;5094060;28;20641;-73
2021/10/17 08:18:58;;;;;;;2.47;1.73;;;;;;;9.28;85.08;101119.72;5094249;28;20674;-73
2021/10/17 08:21:24;;;;;;;2.37;1.60;;;;;;;9.28;84.92;101127.91;5093850;28;20177;-73
2021/10/17 08:23:49;;;;;;;2.70;1.97;;;;;;;9.23;84.50;101128.75;5093465;28;20209;-73
2021/10/17 08:26:15;;;;;;;3.97;2.73;;;;;;;9.19;85.12;101133.16;5076650;28;20181;-72
2021/10/17 08:28:40;;;;;;;2.70;2.00;;;;;;;9.14;85.51;101132.38;5095602;28;20174;-72
2021/10/17 08:31:06;;;;;;;4.70;2.30;;;;;;;9.14;88.01;101132.38;5076005;28;20185;-73
2021/10/17 08:33:31;;;;;;;3.93;2.10;;;;;;;9.11;88.65;101131.06;5075649;28;20177;-73
2021/10/17 08:35:57;;;;;;;4.10;2.00;;;;;;;9.10;88.36;101125.84;5093702;28;20181;-72
2021/10/17 08:38:22;;;;;;;3.03;2.30;;;;;;;9.07;88.51;101129.16;5075356;28;20495;-73
2021/10/17 08:40:50;;;;;;;9.07;2.83;;;;;;;9.04;87.80;101133.28;5075481;28;20174;-72
2021/10/17 08:43:15;;;;;;;3.63;2.03;;;;;;;9.06;88.03;101131.06;5093534;28;20197;-73
2021/10/17 08:45:43;;;;;;;4.10;2.07;;;;;;;9.09;88.90;101133.22;5093510;28;20533;-78
2021/10/17 08:48:09;;;;;;;3.77;2.30;;;;;;;9.10;88.34;101140.31;5093492;28;20166;-81
2021/10/17 08:50:35;;;;;;;4.00;2.33;;;;;;;9.08;88.65;101139.78;5093310;28;20260;-73
2021/10/17 08:53:01;;;;;;;5.70;1.30;;;;;;;9.08;89.05;101138.97;5075370;28;20281;-74
2021/10/17 08:55:26;;;;;;;9.83;2.50;;;;;;;9.10;90.26;101139.47;5092986;28;20318;-73
2021/10/17 08:57:53;;;;;;;3.47;2.17;;;;;;;9.10;89.21;101137.56;5093425;28;20182;-73
2021/10/17 09:00:28;;;;;;;2.83;1.63;;;;;;;9.15;89.13;101144.91;5093371;28;20170;-74
2021/10/17 09:02:54;;;;;;;6.67;2.27;;;;;;;9.16;89.05;101139.19;5093179;28;20201;-74
2021/10/17 09:05:32;;;;;;;7.30;2.47;;;;;;;9.18;88.43;101142.44;5092943;28;20581;-73
2021/10/17 09:07:58;;;;;;;3.90;2.60;;;;;;;9.19;88.19;101137.78;5093144;28;20176;-73
2021/10/17 09:10:23;;;;;;;2.83;1.70;;;;;;;9.21;88.37;101136.41;5074400;28;20178;-74
2021/10/17 09:12:48;;;;;;;7.13;2.83;;;;;;;9.22;88.24;101134.50;5093060;28;20177;-74
2021/10/17 09:15:27;;;;;;;2.43;2.10;;;;;;;9.23;87.53;101142.38;5092823;28;20181;-73
2021/10/17 09:18:11;;;;;;;3.33;1.27;;;;;;;9.22;87.38;101129.84;5074610;28;20658;-74
2021/10/17 09:20:45;;;;;;;5.37;2.33;;;;;;;9.22;87.51;101137.22;5086501;28;20189;-73
2021/10/17 09:23:11;;;;;;;4.13;2.23;;;;;;;9.22;87.39;101135.31;5092674;28;20196;-74
2021/10/17 09:25:36;;;;;;;2.73;2.07;;;;;;;9.24;87.36;101135.00;5092580;28;20708;-73
2021/10/17 09:28:20;;;;;;;3.27;2.47;;;;;;;9.30;88.10;101135.81;5074535;28;20170;-74
2021/10/17 09:31:13;;;;;;;5.07;2.30;;;;;;;9.34;87.74;101134.94;5092582;28;20177;-74
2021/10/17 09:33:41;;;;;;;4.50;3.13;;;;;;;9.41;87.63;101137.34;5073727;28;20588;-74
2021/10/17 09:36:24;;;;;;;2.20;2.00;;;;;;;9.48;87.85;101157.72;5074429;28;20213;-73
2021/10/17 09:38:53;;;;;;;3.70;2.43;;;;;;;9.48;86.12;101141.34;5074518;28;20673;-74
2021/10/17 09:41:22;;;;;;;3.10;2.00;;;;;;;9.51;86.14;101145.41;5073216;28;20235;-74
2021/10/17 09:43:56;;;;;;;5.93;2.70;;;;;;;9.52;86.63;101141.59;5073146;28;20205;-75
2021/10/17 09:46:23;;;;;;;6.53;2.10;;;;;;;9.50;86.08;101143.78;5074615;28;20247;-74
2021/10/17 09:48:48;;;;;;;2.43;1.93;;;;;;;9.53;86.68;101152.22;5092329;28;20634;-74
2021/10/17 09:51:29;;;;;;;4.53;2.53;;;;;;;9.58;86.46;101151.38;5074100;28;20268;-74
2021/10/17 09:53:59;;;;;;;3.73;2.77;;;;;;;9.64;86.65;101160.31;5092048;28;20261;-74
2021/10/17 09:56:30;;;;;;;5.63;2.10;;;;;;;9.72;87.26;101152.31;5073672;28;20182;-74
2021/10/17 09:59:00;;;;;;;1.97;1.80;;;;;;;9.76;86.62;101147.91;5072586;28;20181;-74
2021/10/17 10:01:26;;;;;;;3.60;2.10;;;;;;;9.79;86.59;101138.31;5073807;28;20568;-74
2021/10/17 10:03:54;;;;;;;4.53;1.83;;;;;;;9.79;86.04;101146.50;5073618;28;20609;-73
2021/10/17 10:06:21;;;;;;;3.43;1.20;;;;;;;9.81;85.33;101138.84;5073309;28;20189;-74
2021/10/17 10:08:47;;;;;;;2.07;1.90;;;;;;;9.84;85.68;101143.75;5091852;28;20185;-74
2021/10/17 10:11:19;;;;;;;3.07;1.80;;;;;;;9.89;85.34;101135.50;5073615;28;20178;-74
2021/10/17 10:13:45;;;;;;;4.87;1.83;;;;;;;9.92;84.21;101131.38;5073449;28;20177;-73
2021/10/17 10:16:11;;;;;;;2.93;1.40;;;;;;;9.97;84.87;101132.09;5073630;28;20178;-73
2021/10/17 10:18:37;;;;;;;2.10;1.90;;;;;;;10.00;84.87;101139.75;5091757;28;20174;-74
2021/10/17 10:21:06;;;;;;;6.60;1.73;;;;;;;9.99;84.42;101124.47;5091820;28;20170;-74
2021/10/17 10:23:32;;;;;;;2.17;1.67;;;;;;;10.05;85.98;101136.94;5072648;28;20273;-73
2021/10/17 10:25:58;;;;;;;10.83;0.93;;;;;;;10.14;85.54;101132.47;5073351;28;20169;-74
2021/10/17 10:28:26;;;;;;;2.33;1.00;;;;;;;10.17;85.02;101133.81;5073670;28;20184;-74
2021/10/17 10:30:51;;;;;;;2.30;1.80;;;;;;;10.18;84.96;101132.69;5091687;28;20177;-74
2021/10/17 10:33:21;;;;;;;4.50;1.57;;;;;;;10.23;85.66;101140.84;5091788;28;20644;-73
2021/10/17 10:36:17;;;;;;;3.60;2.93;;;;;;;10.30;86.35;101146.78;5073032;28;20184;-74
2021/10/17 10:38:51;;;;;;;4.20;2.03;;;;;;;10.28;83.91;101149.00;5072554;28;20679;-74
2021/10/17 10:41:18;;;;;;;2.03;1.37;;;;;;;10.28;84.43;101154.47;5068812;28;20226;-74
2021/10/17 10:43:43;;;;;;;0.50;0.37;;;;;;;10.29;83.40;101149.81;5078025;28;20202;-77
2021/10/17 10:46:10;;;;;;;3.67;2.10;;;;;;;10.35;84.85;101148.63;5077068;28;20595;-81
2021/10/17 10:48:48;;;;;;;2.60;2.03;;;;;;;10.47;84.96;101138.09;5091211;28;20174;-74
2021/10/17 10:51:38;;;;;;;1.97;1.87;;;;;;;10.54;85.36;101145.94;5091169;28;20174;-76
2021/10/17 10:54:04;;;;;;;4.17;3.03;;;;;;;10.58;86.20;101150.53;5073180;28;20540;-76
2021/10/17 10:56:49;;;;;;;5.10;2.03;;;;;;;10.65;85.61;101148.22;5073091;28;20181;-76
2021/10/17 10:59:17;;;;;;;1.50;1.13;;;;;;;10.66;83.64;101143.56;5091811;28;20180;-76
2021/10/17 11:01:51;;;;;;;2.03;1.50;;;;;;;10.69;84.13;101148.44;5091531;28;20181;-76
2021/10/17 11:04:38;;;;;;;7.20;1.80;;;;;;;10.75;84.79;101152.75;5091186;28;20555;-76
2021/10/17 11:07:31;;;;;;;4.50;2.30;;;;;;;10.83;83.67;101152.06;5072996;28;20211;-76
2021/10/17 11:10:22;;;;;;;2.93;1.60;;;;;;;10.87;82.05;101153.13;5073328;28;20738;-75
2021/10/17 11:12:50;;;;;;;4.83;1.80;;;;;;;10.90;82.15;101155.25;5080261;28;20194;-75
2021/10/17 11:15:17;;;;;;;2.30;1.50;;;;;;;10.93;81.75;101148.38;5091182;28;20170;-76
2021/10/17 11:17:54;;;;;;;2.33;2.00;;;;;;;11.01;82.83;101158.66;5091375;28;20170;-75
2021/10/17 11:20:23;;;;;;;2.50;1.53;;;;;;;11.13;83.11;101159.00;5073237;28;20705;-75
2021/10/17 11:22:51;;;;;;;3.60;2.27;;;;;;;11.13;81.27;101156.25;5091206;28;20185;-76
2021/10/17 11:25:19;;;;;;;3.87;1.73;;;;;;;11.22;80.94;101159.16;5090997;28;20202;-76
2021/10/17 11:27:46;;;;;;;2.10;1.90;;;;;;;11.22;79.33;101159.16;5090981;28;20527;-75
2021/10/17 11:30:33;;;;;;;3.57;2.50;;;;;;;11.27;80.44;101148.94;5090967;28;20178;-76